Time;durP1;ratioP1;P1;durP2;ratioP2;P2;SDS_P1;SDS_P2;PMS_P1;PMS_P2;Temp;Humidity;BMP_temperature;BMP_pressure;BME280_temperature;BME280_humidity;BME280_pressure;Samples;Min_cycle;Max_cycle;Signal;HPM_P1;HPM_P2
2022/11/01 00:01:44;;;;;;;3.07;1.70;;;14.10;87.10;;;;;;5118313;28;20499;-74
2022/11/01 00:04:11;;;;;;;3.40;1.70;;;14.10;90.10;;;;;;5116807;28;20487;-72
2022/11/01 00:06:39;;;;;;;4.60;2.10;;;14.10;91.70;;;;;;5117161;28;20480;-72
2022/11/01 00:09:06;;;;;;;5.17;2.03;;;14.00;92.20;;;;;;5116759;28;20456;-72
2022/11/01 00:11:34;;;;;;;3.70;1.97;;;14.00;97.00;;;;;;5117422;28;20547;-72
2022/11/01 00:14:01;;;;;;;2.93;2.10;;;14.00;99.90;;;;;;5117933;28;20486;-72
2022/11/01 00:16:28;;;;;;;3.73;2.00;;;14.00;99.90;;;;;;5117551;28;20945;-72
2022/11/01 00:18:56;;;;;;;3.57;1.70;;;14.00;96.90;;;;;;5117637;28;20452;-73
2022/11/01 00:21:24;;;;;;;4.97;2.17;;;14.00;99.90;;;;;;5116719;28;20795;-72
2022/11/01 00:23:51;;;;;;;5.13;2.60;;;14.00;99.90;;;;;;5118204;28;20794;-72
2022/11/01 00:26:19;;;;;;;4.50;2.10;;;14.10;91.00;;;;;;5117664;28;20480;-73
2022/11/01 00:28:47;;;;;;;2.87;2.53;;;14.00;88.30;;;;;;5116334;27;20510;-73
2022/11/01 00:31:15;;;;;;;2.40;2.07;;;14.00;99.90;;;;;;5116602;28;20505;-73
2022/11/01 00:33:42;;;;;;;5.13;2.90;;;14.10;99.90;;;;;;5113998;28;20568;-73
2022/11/01 00:36:11;;;;;;;5.87;3.43;;;14.20;86.60;;;;;;5114283;28;20440;-73
2022/11/01 00:38:38;;;;;;;4.80;2.20;;;14.20;77.90;;;;;;5113692;28;20530;-72
2022/11/01 00:41:05;;;;;;;2.10;1.80;;;14.10;74.00;;;;;;5114121;28;20537;-72
2022/11/01 00:43:33;;;;;;;6.60;2.13;;;14.20;97.40;;;;;;5114744;28;20501;-73
2022/11/01 00:46:01;;;;;;;6.80;1.90;;;14.40;80.50;;;;;;5116292;28;20824;-73
2022/11/01 00:48:28;;;;;;;4.40;2.30;;;14.40;50.80;;;;;;5117659;28;20456;-72
2022/11/01 00:50:56;;;;;;;4.30;3.30;;;14.40;40.00;;;;;;5116885;28;20472;-73
2022/11/01 00:53:24;;;;;;;4.00;2.17;;;14.30;55.10;;;;;;5116876;28;20480;-73
2022/11/01 00:55:51;;;;;;;6.33;2.40;;;14.30;34.50;;;;;;5117625;28;20830;-73
2022/11/01 00:58:18;;;;;;;5.07;2.23;;;14.20;53.00;;;;;;5117576;28;20444;-73
2022/11/01 01:00:45;;;;;;;3.20;2.30;;;14.20;80.40;;;;;;5118398;28;20472;-73
2022/11/01 01:03:12;;;;;;;6.13;2.20;;;14.10;77.10;;;;;;5116121;28;20484;-73
2022/11/01 01:05:39;;;;;;;3.70;2.00;;;14.10;95.90;;;;;;5115304;28;20448;-73
2022/11/01 01:08:05;;;;;;;4.67;3.40;;;14.10;57.80;;;;;;5114780;28;20444;-73
2022/11/01 01:10:34;;;;;;;8.20;1.60;;;14.10;55.10;;;;;;5113931;28;20763;-74
2022/11/01 01:13:01;;;;;;;3.27;1.87;;;14.10;40.70;;;;;;5113459;28;20976;-74
2022/11/01 01:15:28;;;;;;;3.50;1.60;;;14.10;24.80;;;;;;5113588;28;20531;-72
2022/11/01 01:17:55;;;;;;;5.10;1.30;;;14.20;14.30;;;;;;5114354;28;20525;-73
2022/11/01 01:20:22;;;;;;;1.70;1.20;;;14.20;3.60;;;;;;5114397;28;20802;-73
2022/11/01 01:22:49;;;;;;;2.43;1.30;;;14.30;1.00;;;;;;5114644;28;20530;-74
2022/11/01 01:25:19;;;;;;;3.43;1.40;;;14.30;1.00;;;;;;5115812;28;20891;-73
2022/11/01 01:27:47;;;;;;;2.43;1.30;;;14.40;1.00;;;;;;5115303;28;20449;-73
2022/11/01 01:30:14;;;;;;;2.20;1.40;;;14.40;1.00;;;;;;5115403;28;20492;-73
2022/11/01 01:32:42;;;;;;;3.70;1.90;;;14.40;1.00;;;;;;5116052;28;20514;-73
2022/11/01 01:35:10;;;;;;;3.27;1.33;;;14.40;1.00;;;;;;5116352;28;20923;-73
2022/11/01 01:37:37;;;;;;;2.17;1.30;;;14.40;1.00;;;;;;5114956;28;20477;-73
2022/11/01 01:40:06;;;;;;;3.13;1.60;;;14.40;1.00;;;;;;5115186;28;20516;-73
2022/11/01 01:42:35;;;;;;;2.60;1.37;;;14.40;1.00;;;;;;5114935;28;20921;-74
2022/11/01 01:45:27;;;;;;;3.40;1.83;;;14.40;1.00;;;;;;5114823;28;20507;-73
2022/11/01 01:47:57;;;;;;;6.07;1.80;;;14.30;1.00;;;;;;5115388;28;20805;-73
2022/11/01 01:50:28;;;;;;;4.07;1.40;;;14.30;1.00;;;;;;5114322;28;20449;-72
2022/11/01 01:53:00;;;;;;;3.43;2.27;;;14.30;1.00;;;;;;5112801;28;20521;-73
2022/11/01 01:55:32;;;;;;;2.10;1.50;;;14.30;1.00;;;;;;5114004;28;20453;-73
2022/11/01 01:57:59;;;;;;;4.80;2.57;;;14.20;1.00;;;;;;5116171;28;20497;-73
2022/11/01 02:00:28;;;;;;;4.77;2.00;;;14.10;14.60;;;;;;5114872;28;20452;-73
2022/11/01 02:02:55;;;;;;;4.97;2.57;;;14.10;24.00;;;;;;5114213;28;20532;-72
2022/11/01 02:05:29;;;;;;;2.70;2.27;;;14.10;28.90;;;;;;5115531;28;20453;-72
2022/11/01 02:07:57;;;;;;;5.07;1.73;;;14.10;32.40;;;;;;5115101;28;20484;-72
2022/11/01 02:10:24;;;;;;;3.63;1.17;;;14.10;14.60;;;;;;5114434;28;20756;-72
2022/11/01 02:12:51;;;;;;;1.93;1.33;;;14.20;1.00;;;;;;5114952;28;20533;-72
2022/11/01 02:15:22;;;;;;;3.40;1.20;;;14.30;1.00;;;;;;5116546;28;20488;-72
2022/11/01 02:18:01;;;;;;;3.70;1.90;;;14.50;1.00;;;;;;5115470;28;20577;-73
2022/11/01 02:20:58;;;;;;;2.50;1.33;;;14.50;1.00;;;;;;5105733;28;20472;-72
2022/11/01 02:23:55;;;;;;;2.53;1.30;;;14.60;1.00;;;;;;5111401;28;20539;-72
2022/11/01 02:26:42;;;;;;;3.20;1.10;;;14.70;1.00;;;;;;5113526;28;20729;-72
2022/11/01 02:29:24;;;;;;;2.17;1.07;;;14.70;1.00;;;;;;5112414;28;20514;-72
2022/11/01 02:32:04;;;;;;;2.73;1.20;;;14.70;1.00;;;;;;5113528;28;20815;-72
2022/11/01 02:34:38;;;;;;;3.67;1.20;;;14.80;1.00;;;;;;5113997;28;20586;-72
2022/11/01 02:37:12;;;;;;;5.50;1.10;;;14.80;1.00;;;;;;5112964;28;20480;-72
2022/11/01 02:39:46;;;;;;;3.67;1.47;;;14.80;1.00;;;;;;5112137;28;20970;-72
2022/11/01 02:42:18;;;;;;;3.40;1.20;;;14.80;1.00;;;;;;5112882;28;20846;-72
2022/11/01 02:44:53;;;;;;;4.47;1.20;;;14.80;1.00;;;;;;5114128;28;20448;-72
2022/11/01 02:47:23;;;;;;;1.77;1.10;;;14.80;1.00;;;;;;5113427;28;20752;-72
2022/11/01 02:49:54;;;;;;;1.93;1.17;;;14.80;1.00;;;;;;5114262;28;20499;-72
2022/11/01 02:52:24;;;;;;;1.87;1.00;;;14.80;1.00;;;;;;5116095;28;20522;-72
2022/11/01 02:54:56;;;;;;;1.70;1.10;;;14.80;1.00;;;;;;5115440;28;20519;-72
2022/11/01 02:57:33;;;;;;;2.90;1.00;;;14.80;1.00;;;;;;5115206;28;20487;-72
2022/11/01 03:00:04;;;;;;;2.27;0.90;;;14.90;1.00;;;;;;5116232;28;20501;-72
2022/11/01 03:02:40;;;;;;;3.30;1.20;;;14.80;1.00;;;;;;5116705;28;20531;-73
2022/11/01 03:05:12;;;;;;;1.80;1.00;;;14.80;1.00;;;;;;5117143;28;20742;-73
2022/11/01 03:07:42;;;;;;;1.60;1.07;;;14.80;1.00;;;;;;5116433;28;20569;-73
2022/11/01 03:10:10;;;;;;;2.27;0.97;;;14.80;1.00;;;;;;5115380;28;20485;-73
2022/11/01 03:12:49;;;;;;;1.90;1.20;;;14.70;1.00;;;;;;5113944;28;20494;-73
2022/11/01 03:15:25;;;;;;;2.60;1.17;;;14.70;1.00;;;;;;5115647;28;20520;-73
2022/11/01 03:18:00;;;;;;;2.13;1.00;;;14.60;1.00;;;;;;5115887;28;20871;-73
2022/11/01 03:20:46;;;;;;;2.80;1.27;;;14.60;1.00;;;;;;5116549;28;21147;-72
2022/11/01 03:23:15;;;;;;;5.90;0.90;;;14.60;1.00;;;;;;5115128;28;20957;-72
2022/11/01 03:25:47;;;;;;;1.40;1.00;;;14.60;1.00;;;;;;5115338;28;20455;-73
2022/11/01 03:28:19;;;;;;;3.30;1.07;;;14.70;1.00;;;;;;5113437;28;20509;-73
2022/11/01 03:30:50;;;;;;;5.70;0.83;;;14.70;1.00;;;;;;5114295;28;20449;-73
2022/11/01 03:33:19;;;;;;;4.13;1.13;;;14.80;1.00;;;;;;5113862;28;20445;-73
2022/11/01 03:35:49;;;;;;;2.90;0.90;;;14.80;1.00;;;;;;5118718;28;20453;-73
2022/11/01 03:38:20;;;;;;;2.53;1.00;;;14.90;1.00;;;;;;5118550;28;20484;-73
2022/11/01 03:40:50;;;;;;;2.90;0.90;;;14.90;1.00;;;;;;5118891;28;20445;-72
2022/11/01 03:43:19;;;;;;;2.60;0.70;;;15.00;99.90;;;;;;5119321;28;20448;-72
2022/11/01 03:45:46;;;;;;;2.03;0.90;;;15.10;99.90;;;;;;5120115;28;20448;-75
2022/11/01 03:48:13;;;;;;;2.20;0.73;;;15.20;99.90;;;;;;5120000;28;20471;-73
2022/11/01 03:50:47;;;;;;;1.87;1.10;;;15.30;99.90;;;;;;5118993;28;20824;-73
2022/11/01 03:53:14;;;;;;;3.30;0.90;;;15.30;99.90;;;;;;5118387;28;20448;-73
2022/11/01 03:55:41;;;;;;;5.37;1.00;;;15.30;1.00;;;;;;5119689;28;20887;-73
2022/11/01 03:58:08;;;;;;;2.70;0.80;;;15.30;16.10;;;;;;5119324;28;20452;-73
2022/11/01 04:00:38;;;;;;;1.80;0.77;;;15.30;1.00;;;;;;5119505;28;20528;-73
2022/11/01 04:03:05;;;;;;;6.20;0.93;;;15.40;1.00;;;;;;5118669;28;20505;-73
2022/11/01 04:05:34;;;;;;;1.73;0.80;;;15.40;1.00;;;;;;5117552;28;20440;-73
2022/11/01 04:08:03;;;;;;;2.70;0.87;;;15.40;1.00;;;;;;5118639;28;20472;-74
2022/11/01 04:10:30;;;;;;;1.70;1.00;;;15.50;1.00;;;;;;5118872;28;20506;-73
2022/11/01 04:12:59;;;;;;;1.50;0.80;;;15.50;23.50;;;;;;5119619;28;20480;-73
2022/11/01 04:21:02;;;;;;;1.57;0.70;;;15.90;1.00;;;;;;5117689;28;20448;-71
2022/11/01 04:23:30;;;;;;;1.90;0.70;;;15.90;1.00;;;;;;5117240;28;20492;-72
2022/11/01 04:25:57;;;;;;;1.60;0.80;;;16.00;1.00;;;;;;5117906;28;20968;-72
2022/11/01 04:28:24;;;;;;;1.17;0.67;;;16.20;1.00;;;;;;5117092;28;20453;-73
2022/11/01 04:30:51;;;;;;;1.23;0.83;;;16.10;1.00;;;;;;5116816;28;20476;-72
2022/11/01 04:33:18;;;;;;;1.87;0.60;;;16.10;99.90;;;;;;5116806;28;20484;-74
2022/11/01 04:35:45;;;;;;;1.63;0.60;;;16.10;1.00;;;;;;5118898;28;20473;-74
2022/11/01 04:38:13;;;;;;;2.00;0.60;;;16.10;1.00;;;;;;5118822;28;20505;-74
2022/11/01 04:40:42;;;;;;;2.20;0.80;;;16.20;1.00;;;;;;5118601;28;20880;-74
2022/11/01 04:43:09;;;;;;;1.50;0.80;;;16.20;1.00;;;;;;5119705;28;20461;-72
2022/11/01 04:45:36;;;;;;;1.13;0.80;;;16.30;99.90;;;;;;5118755;28;20494;-74
2022/11/01 04:48:04;;;;;;;3.23;0.70;;;16.20;1.00;;;;;;5119800;28;20445;-74
2022/11/01 04:50:32;;;;;;;7.80;0.80;;;16.10;29.80;;;;;;5119741;28;20880;-75
2022/11/01 04:52:59;;;;;;;2.27;0.70;;;16.10;1.00;;;;;;5119090;28;20488;-73
2022/11/01 04:55:26;;;;;;;1.20;0.70;;;16.10;1.00;;;;;;5118654;28;20935;-73
2022/11/01 04:57:54;;;;;;;2.60;0.50;;;16.20;99.90;;;;;;5118381;28;20872;-73
2022/11/01 05:00:22;;;;;;;2.30;0.60;;;16.20;99.90;;;;;;5118279;28;20445;-73
2022/11/01 05:02:50;;;;;;;3.17;0.70;;;16.20;1.00;;;;;;5117265;28;20524;-73
2022/11/01 05:05:17;;;;;;;1.70;0.60;;;16.20;1.00;;;;;;5117548;28;20880;-73
2022/11/01 05:07:44;;;;;;;1.40;0.57;;;16.20;1.00;;;;;;5117359;28;20852;-74
2022/11/01 05:10:12;;;;;;;2.40;0.60;;;16.20;1.00;;;;;;5116058;28;20835;-73
2022/11/01 05:12:39;;;;;;;1.10;0.60;;;16.20;99.90;;;;;;5116843;28;20899;-72
2022/11/01 05:15:08;;;;;;;1.07;0.70;;;16.20;99.90;;;;;;5118178;28;20952;-72
2022/11/01 05:17:35;;;;;;;2.80;0.57;;;16.20;99.90;;;;;;5119178;28;20484;-73
2022/11/01 05:20:02;;;;;;;2.00;0.50;;;16.20;99.90;;;;;;5117604;28;20453;-72
2022/11/01 05:22:29;;;;;;;2.70;0.60;;;16.20;1.00;;;;;;5118102;28;20476;-73
2022/11/01 05:24:56;;;;;;;0.80;0.50;;;16.20;1.00;;;;;;5117920;28;20891;-74
2022/11/01 05:27:26;;;;;;;1.63;0.50;;;16.30;1.00;;;;;;5109116;28;20809;-73
2022/11/01 05:29:53;;;;;;;1.50;0.43;;;16.30;99.90;;;;;;5118135;28;20454;-75
2022/11/01 05:32:21;;;;;;;0.90;0.60;;;16.30;99.90;;;;;;5116831;28;20448;-73
2022/11/01 05:34:48;;;;;;;1.17;0.40;;;16.30;1.00;;;;;;5118280;28;20510;-72
2022/11/01 05:37:15;;;;;;;1.47;0.60;;;16.30;1.00;;;;;;5117092;28;20440;-72
2022/11/01 05:39:42;;;;;;;2.53;0.60;;;16.30;1.00;;;;;;5117438;28;20476;-75
2022/11/01 05:42:09;;;;;;;0.80;0.40;;;16.20;99.90;;;;;;5117709;28;20505;-73
2022/11/01 05:44:36;;;;;;;0.50;0.30;;;16.20;99.90;;;;;;5116361;28;20533;-72
2022/11/01 05:47:04;;;;;;;0.60;0.30;;;16.20;1.00;;;;;;5116014;28;20474;-72
2022/11/01 05:49:32;;;;;;;1.57;0.30;;;16.20;1.00;;;;;;5115375;28;20459;-72
2022/11/01 05:51:59;;;;;;;0.70;0.40;;;16.20;1.00;;;;;;5115026;28;20872;-72
2022/11/01 05:54:26;;;;;;;0.50;0.40;;;16.10;1.00;;;;;;5114563;28;20488;-73
2022/11/01 05:56:53;;;;;;;1.10;0.40;;;16.10;1.00;;;;;;5114585;28;20445;-73
2022/11/01 05:59:20;;;;;;;0.67;0.40;;;16.00;1.00;;;;;;5116361;28;20453;-72
2022/11/01 06:01:47;;;;;;;0.50;0.30;;;15.90;1.00;;;;;;5114952;28;20471;-73
2022/11/01 06:04:14;;;;;;;0.60;0.40;;;15.90;1.00;;;;;;5115226;28;20449;-72
2022/11/01 06:06:42;;;;;;;1.73;0.40;;;15.80;1.00;;;;;;5115695;28;20818;-72
2022/11/01 06:09:09;;;;;;;0.60;0.30;;;15.70;1.00;;;;;;5115486;28;20488;-73
2022/11/01 06:11:36;;;;;;;0.60;0.30;;;15.70;12.80;;;;;;5115654;28;20478;-72
2022/11/01 06:14:06;;;;;;;2.83;0.50;;;15.70;15.40;;;;;;5116411;28;20468;-72
2022/11/01 06:16:33;;;;;;;0.43;0.27;;;15.80;24.30;;;;;;5116889;28;20462;-73
2022/11/01 06:19:00;;;;;;;1.23;0.70;;;15.70;25.70;;;;;;5117019;28;20459;-73
2022/11/01 06:21:27;;;;;;;1.23;0.50;;;15.60;34.30;;;;;;5117158;28;20503;-74
2022/11/01 06:23:56;;;;;;;0.63;0.40;;;15.60;37.90;;;;;;5116858;28;20525;-74
2022/11/01 06:26:23;;;;;;;0.70;0.40;;;15.60;52.00;;;;;;5108773;28;20445;-72
2022/11/01 06:28:50;;;;;;;1.00;0.30;;;15.60;59.90;;;;;;5117806;28;20742;-73
2022/11/01 06:31:17;;;;;;;0.93;0.30;;;15.60;59.00;;;;;;5117407;28;20474;-72
2022/11/01 06:33:44;;;;;;;0.50;0.30;;;15.60;61.30;;;;;;5116056;28;20810;-73
2022/11/01 06:36:11;;;;;;;0.50;0.30;;;15.60;68.80;;;;;;5116475;28;20516;-73
2022/11/01 06:38:38;;;;;;;0.40;0.30;;;15.60;67.20;;;;;;5116952;28;20473;-73
2022/11/01 06:41:06;;;;;;;0.50;0.30;;;15.70;66.00;;;;;;5116684;28;20942;-72
2022/11/01 06:43:33;;;;;;;1.37;0.30;;;15.70;64.20;;;;;;5115238;28;20810;-72
2022/11/01 06:46:01;;;;;;;0.40;0.20;;;15.70;55.70;;;;;;5116416;28;20436;-72
2022/11/01 06:48:29;;;;;;;0.80;0.30;;;15.60;61.20;;;;;;5115959;28;20791;-72
2022/11/01 06:50:56;;;;;;;0.80;0.27;;;15.40;96.60;;;;;;5116486;28;20883;-72
2022/11/01 06:53:23;;;;;;;1.00;0.27;;;15.40;99.90;;;;;;5116785;28;20488;-72
2022/11/01 06:55:51;;;;;;;0.53;0.20;;;15.30;99.90;;;;;;5116520;28;20488;-72
2022/11/01 06:58:19;;;;;;;0.40;0.20;;;15.30;99.90;;;;;;5117412;28;20539;-73
2022/11/01 07:00:48;;;;;;;0.47;0.30;;;15.30;99.90;;;;;;5116717;28;20793;-74
2022/11/01 07:03:15;;;;;;;0.40;0.20;;;15.30;99.90;;;;;;5116023;28;20475;-73
2022/11/01 07:05:42;;;;;;;0.60;0.30;;;15.40;99.90;;;;;;5116340;28;20440;-73
2022/11/01 07:08:11;;;;;;;0.50;0.30;;;15.40;99.90;;;;;;5116958;28;20876;-73
2022/11/01 07:10:40;;;;;;;0.40;0.20;;;15.40;99.90;;;;;;5120766;28;20760;-72
2022/11/01 07:13:09;;;;;;;0.40;0.20;;;15.50;99.90;;;;;;5120673;28;20536;-72
2022/11/01 07:15:37;;;;;;;0.87;0.27;;;15.50;99.90;;;;;;5121508;28;20485;-72
2022/11/01 07:18:07;;;;;;;0.40;0.20;;;15.60;99.90;;;;;;5120470;28;20509;-73
2022/11/01 07:20:40;;;;;;;1.67;0.20;;;15.60;98.40;;;;;;5120158;28;20452;-73
2022/11/01 07:23:14;;;;;;;0.67;0.20;;;15.70;95.70;;;;;;5119992;28;20971;-72
2022/11/01 07:25:41;;;;;;;0.50;0.20;;;15.80;71.20;;;;;;5119520;28;20483;-72
2022/11/01 07:28:08;;;;;;;0.70;0.20;;;15.80;57.30;;;;;;5118691;28;20448;-75
2022/11/01 07:30:38;;;;;;;0.43;0.13;;;15.80;48.90;;;;;;5119816;28;20480;-73
2022/11/01 07:33:05;;;;;;;0.40;0.20;;;15.80;60.70;;;;;;5121436;28;20513;-73
2022/11/01 07:35:32;;;;;;;0.47;0.20;;;15.90;69.60;;;;;;5120492;28;20516;-73
2022/11/01 07:38:00;;;;;;;0.30;0.10;;;16.00;37.30;;;;;;5119880;28;20484;-72
2022/11/01 07:40:28;;;;;;;0.27;0.10;;;16.10;29.40;;;;;;5120198;28;20520;-72
2022/11/01 07:42:57;;;;;;;0.40;0.10;;;16.10;24.40;;;;;;5119649;28;20487;-72
2022/11/01 07:45:25;;;;;;;0.50;0.20;;;16.00;25.90;;;;;;5112307;28;20855;-72
2022/11/01 07:47:57;;;;;;;0.40;0.20;;;16.10;15.20;;;;;;5120745;28;20449;-72
2022/11/01 07:50:24;;;;;;;0.70;0.20;;;16.10;4.70;;;;;;5119063;28;20480;-74
2022/11/01 07:53:00;;;;;;;0.33;0.17;;;16.30;1.00;;;;;;5120494;28;20480;-73
2022/11/01 07:55:27;;;;;;;0.57;0.20;;;16.40;1.00;;;;;;5120092;28;20483;-73
2022/11/01 07:57:53;;;;;;;0.30;0.10;;;16.40;1.00;;;;;;5119171;28;20437;-72
2022/11/01 08:00:21;;;;;;;0.40;0.13;;;16.40;1.00;;;;;;5119782;28;20911;-72
2022/11/01 08:02:48;;;;;;;1.03;0.20;;;16.50;1.00;;;;;;5119818;28;20767;-72
2022/11/01 08:05:17;;;;;;;0.30;0.10;;;16.50;1.00;;;;;;5119733;28;20484;-72
2022/11/01 08:07:44;;;;;;;0.30;0.20;;;16.40;1.00;;;;;;5119610;28;20505;-73
2022/11/01 08:10:12;;;;;;;0.50;0.20;;;16.50;1.00;;;;;;5119957;28;20456;-73
2022/11/01 08:12:39;;;;;;;0.30;0.20;;;16.50;1.00;;;;;;5100483;28;20445;-73
2022/11/01 08:15:08;;;;;;;0.30;0.10;;;16.50;1.00;;;;;;5116228;28;20562;-73
2022/11/01 08:17:36;;;;;;;0.40;0.20;;;16.60;1.00;;;;;;5118160;28;20457;-73
2022/11/01 08:20:03;;;;;;;0.40;0.20;;;16.60;1.00;;;;;;5118806;28;20498;-73
2022/11/01 08:22:31;;;;;;;1.10;0.20;;;16.60;1.00;;;;;;5119650;28;20815;-73
2022/11/01 08:24:58;;;;;;;0.60;0.20;;;16.70;1.00;;;;;;5119863;28;20550;-73
2022/11/01 08:27:25;;;;;;;0.70;0.10;;;16.70;1.00;;;;;;5119518;28;20469;-73
2022/11/01 08:29:52;;;;;;;0.33;0.20;;;16.70;1.00;;;;;;5118959;28;20492;-73
2022/11/01 08:32:21;;;;;;;0.30;0.20;;;16.60;1.00;;;;;;5118801;28;20473;-73
2022/11/01 08:34:48;;;;;;;0.50;0.20;;;16.60;1.00;;;;;;5119756;28;20480;-73
2022/11/01 08:37:17;;;;;;;0.30;0.10;;;16.60;1.00;;;;;;5119409;28;20444;-72
2022/11/01 08:39:45;;;;;;;0.50;0.20;;;16.60;1.00;;;;;;5119520;28;20788;-73
2022/11/01 08:42:12;;;;;;;0.30;0.10;;;16.70;1.00;;;;;;5119297;28;20509;-73
2022/11/01 08:44:39;;;;;;;0.40;0.20;;;16.80;1.00;;;;;;5118765;28;20826;-74
2022/11/01 08:47:06;;;;;;;0.40;0.20;;;16.90;1.00;;;;;;5119179;28;20449;-74
2022/11/01 08:49:33;;;;;;;0.40;0.20;;;17.00;1.00;;;;;;5117565;28;20484;-74
2022/11/01 08:52:00;;;;;;;0.70;0.30;;;17.10;1.00;;;;;;5118498;28;20460;-74
2022/11/01 08:54:27;;;;;;;0.40;0.20;;;17.10;1.00;;;;;;5118576;28;20930;-74
2022/11/01 08:56:56;;;;;;;0.67;0.30;;;17.10;1.00;;;;;;5119083;28;20931;-74
2022/11/01 08:59:23;;;;;;;0.70;0.30;;;17.10;1.00;;;;;;5118902;28;20555;-74
2022/11/01 09:01:50;;;;;;;0.70;0.40;;;17.10;1.00;;;;;;5118226;28;20492;-72
2022/11/01 09:04:17;;;;;;;2.33;2.13;;;17.20;1.00;;;;;;5118209;28;20515;-72
2022/11/01 09:06:44;;;;;;;0.60;0.30;;;17.20;1.00;;;;;;5118560;28;20448;-71
2022/11/01 09:09:11;;;;;;;0.30;0.20;;;17.30;1.00;;;;;;5118510;28;20842;-72
2022/11/01 09:11:41;;;;;;;0.80;0.50;;;17.30;1.00;;;;;;5118915;28;20456;-73
2022/11/01 09:14:10;;;;;;;0.70;0.40;;;17.30;1.00;;;;;;5119431;28;20453;-73
2022/11/01 09:16:37;;;;;;;8.23;4.80;;;17.30;1.00;;;;;;5118779;28;20477;-74
2022/11/01 09:19:04;;;;;;;2.50;1.73;;;17.40;1.00;;;;;;5118111;28;20471;-73
2022/11/01 09:21:31;;;;;;;0.50;0.10;;;17.30;99.90;;;;;;5117218;28;20448;-73
2022/11/01 09:23:58;;;;;;;0.50;0.20;;;17.30;99.90;;;;;;5117704;28;20483;-72
2022/11/01 09:26:27;;;;;;;0.40;0.20;;;17.20;99.90;;;;;;5138473;27;20447;-73
2022/11/01 09:28:57;;;;;;;0.70;0.20;;;17.30;1.00;;;;;;5138251;27;20456;-75
2022/11/01 09:31:27;;;;;;;0.40;0.20;;;17.30;1.00;;;;;;5115647;28;20475;-74
2022/11/01 09:33:55;;;;;;;0.30;0.10;;;17.20;1.00;;;;;;5118427;28;20460;-74
2022/11/01 09:36:22;;;;;;;0.97;0.20;;;17.30;1.00;;;;;;5117669;28;20485;-73
2022/11/01 09:38:50;;;;;;;0.53;0.20;;;17.40;1.00;;;;;;5116895;28;20575;-74
2022/11/01 09:41:27;;;;;;;0.60;0.43;;;17.50;1.00;;;;;;5117246;28;20457;-73
2022/11/01 09:43:58;;;;;;;0.40;0.20;;;17.60;1.00;;;;;;5117035;28;20491;-74
2022/11/01 09:46:31;;;;;;;0.40;0.20;;;17.60;99.90;;;;;;5117506;28;20436;-72
2022/11/01 09:49:00;;;;;;;1.50;0.20;;;17.70;99.90;;;;;;5116872;28;20555;-73
2022/11/01 09:51:28;;;;;;;0.43;0.20;;;17.70;99.90;;;;;;5116540;28;21087;-71
2022/11/01 09:53:59;;;;;;;0.40;0.20;;;17.80;99.90;;;;;;5117432;28;20473;-72
2022/11/01 09:56:32;;;;;;;0.30;0.20;;;17.80;99.90;;;;;;5116829;28;20469;-74
2022/11/01 09:59:13;;;;;;;0.30;0.10;;;17.90;99.90;;;;;;5116828;28;20907;-73
2022/11/01 10:01:52;;;;;;;3.70;0.20;;;18.10;99.90;;;;;;5116926;28;20832;-72
2022/11/01 10:04:50;;;;;;;0.30;0.10;;;18.20;99.90;;;;;;5117455;28;20456;-73
2022/11/01 10:07:23;;;;;;;1.73;0.20;;;18.50;99.90;;;;;;5117202;28;20488;-73
2022/11/01 10:09:59;;;;;;;0.37;0.20;;;18.50;99.90;;;;;;5117314;28;20481;-74
2022/11/01 10:12:46;;;;;;;0.40;0.20;;;18.60;99.90;;;;;;5117420;28;20529;-73
2022/11/01 10:15:28;;;;;;;0.57;0.30;;;18.80;99.90;;;;;;5118299;28;21005;-74
2022/11/01 10:18:03;;;;;;;0.50;0.20;;;18.80;99.90;;;;;;5117977;28;20452;-73
2022/11/01 10:20:33;;;;;;;0.33;0.20;;;18.70;99.90;;;;;;5117929;28;20440;-73
2022/11/01 10:23:03;;;;;;;1.30;0.20;;;18.80;99.90;;;;;;5117282;28;20449;-73
2022/11/01 10:25:33;;;;;;;0.30;0.13;;;18.90;99.90;;;;;;5117394;28;20534;-72
2022/11/01 10:28:07;;;;;;;0.40;0.20;;;19.00;99.90;;;;;;5118092;28;20616;-72
2022/11/01 10:30:39;;;;;;;0.37;0.20;;;19.00;99.90;;;;;;5117244;28;20449;-73
2022/11/01 10:33:22;;;;;;;0.60;0.20;;;19.00;99.90;;;;;;5115866;28;20952;-73
2022/11/01 10:35:54;;;;;;;0.40;0.20;;;19.10;99.90;;;;;;5115361;28;20484;-74
2022/11/01 10:38:34;;;;;;;0.30;0.20;;;19.20;99.90;;;;;;5116826;28;20461;-72
2022/11/01 10:41:06;;;;;;;0.40;0.20;;;19.20;99.90;;;;;;5116622;28;20505;-72
2022/11/01 10:43:38;;;;;;;0.40;0.20;;;19.20;99.90;;;;;;5116150;28;20456;-72
2022/11/01 10:46:09;;;;;;;0.40;0.20;;;19.20;99.90;;;;;;5116829;28;20448;-73
2022/11/01 10:48:43;;;;;;;1.10;0.40;;;19.20;99.90;;;;;;5116436;27;20532;-74
2022/11/01 10:51:12;;;;;;;0.60;0.30;;;19.10;99.90;;;;;;5116020;28;20456;-73
2022/11/01 10:53:43;;;;;;;0.50;0.30;;;19.20;99.90;;;;;;5116028;28;20805;-73
2022/11/01 10:56:15;;;;;;;0.40;0.20;;;19.10;99.90;;;;;;5116844;28;20572;-73
2022/11/01 10:58:48;;;;;;;0.83;0.37;;;19.00;99.90;;;;;;5116357;27;20788;-73
2022/11/01 11:01:20;;;;;;;0.60;0.30;;;19.00;99.90;;;;;;5116169;28;20484;-72
2022/11/01 11:03:50;;;;;;;0.40;0.20;;;19.00;99.90;;;;;;5116571;28;20460;-73
2022/11/01 11:06:17;;;;;;;0.40;0.20;;;18.80;99.90;;;;;;5116583;28;20527;-73
2022/11/01 11:08:50;;;;;;;1.03;0.30;;;18.90;99.90;;;;;;5116728;28;20454;-73
2022/11/01 11:11:18;;;;;;;0.30;0.20;;;19.00;99.90;;;;;;5116026;28;20908;-72
2022/11/01 11:13:49;;;;;;;0.40;0.20;;;18.80;99.90;;;;;;5116950;28;20498;-74
2022/11/01 11:16:23;;;;;;;0.60;0.20;;;18.70;99.90;;;;;;5116108;28;20503;-73
2022/11/01 11:19:02;;;;;;;0.60;0.20;;;18.70;99.90;;;;;;5116482;28;20496;-73
2022/11/01 11:21:34;;;;;;;0.60;0.20;;;18.70;99.90;;;;;;5117110;28;20441;-73
2022/11/01 11:24:02;;;;;;;0.50;0.20;;;18.90;99.90;;;;;;5117002;28;20461;-74
2022/11/01 11:26:38;;;;;;;0.40;0.20;;;18.80;99.90;;;;;;5116253;28;20455;-72
2022/11/01 11:29:05;;;;;;;0.50;0.23;;;18.90;99.90;;;;;;5116632;28;20879;-74
2022/11/01 11:31:34;;;;;;;0.40;0.20;;;19.00;99.90;;;;;;5116262;28;20441;-71
2022/11/01 11:34:19;;;;;;;1.00;0.20;;;19.00;99.90;;;;;;5116332;28;20511;-73
2022/11/01 11:36:50;;;;;;;0.40;0.20;;;19.00;99.90;;;;;;5116117;28;20537;-73
2022/11/01 11:39:25;;;;;;;0.80;0.20;;;19.10;99.90;;;;;;5116158;28;20779;-74
2022/11/01 11:41:52;;;;;;;0.60;0.20;;;19.00;99.90;;;;;;5116591;28;20448;-73
2022/11/01 11:44:40;;;;;;;3.33;0.30;;;18.90;99.90;;;;;;5116409;28;20513;-73
2022/11/01 11:47:18;;;;;;;0.67;0.20;;;19.00;99.90;;;;;;5115177;28;20750;-73
2022/11/01 11:49:48;;;;;;;0.40;0.20;;;19.00;99.90;;;;;;5117274;28;20491;-73
2022/11/01 11:52:17;;;;;;;0.60;0.30;;;19.00;99.90;;;;;;5116448;28;20448;-74
2022/11/01 11:54:45;;;;;;;0.63;0.20;;;19.10;99.90;;;;;;5117206;28;20456;-73
2022/11/01 11:57:17;;;;;;;0.50;0.30;;;19.00;99.90;;;;;;5118967;28;20539;-73
2022/11/01 11:59:49;;;;;;;0.40;0.20;;;18.90;99.90;;;;;;5119343;28;20956;-73
2022/11/01 12:02:20;;;;;;;0.57;0.30;;;18.80;99.90;;;;;;5119244;28;20491;-73
2022/11/01 12:04:54;;;;;;;0.80;0.60;;;18.80;99.90;;;;;;5118598;28;20456;-73
2022/11/01 12:07:29;;;;;;;0.40;0.20;;;18.90;99.90;;;;;;5117778;28;20554;-72
2022/11/01 12:09:57;;;;;;;0.40;0.20;;;18.90;99.90;;;;;;5118929;28;20452;-73
2022/11/01 12:12:26;;;;;;;0.40;0.20;;;18.90;99.90;;;;;;5111854;28;20514;-73
2022/11/01 12:14:54;;;;;;;0.40;0.20;;;19.00;99.90;;;;;;5119988;28;20787;-73
2022/11/01 12:17:33;;;;;;;0.50;0.20;;;19.00;99.90;;;;;;5119420;28;20488;-73
2022/11/01 12:20:09;;;;;;;1.63;0.20;;;19.00;99.90;;;;;;5118823;28;20484;-73
2022/11/01 12:22:39;;;;;;;0.50;0.20;;;19.00;99.90;;;;;;5118664;28;20476;-74
2022/11/01 12:25:11;;;;;;;0.40;0.20;;;19.00;99.90;;;;;;5118089;28;20753;-73
2022/11/01 12:27:39;;;;;;;1.30;0.20;;;19.00;99.90;;;;;;5119117;28;20449;-72
2022/11/01 12:30:12;;;;;;;1.03;0.20;;;18.90;99.90;;;;;;5118825;28;20460;-74
2022/11/01 12:32:48;;;;;;;0.50;0.20;;;19.00;99.90;;;;;;5117711;28;20915;-73
2022/11/01 12:35:23;;;;;;;0.70;0.20;;;19.10;99.90;;;;;;5117596;28;20510;-73
2022/11/01 12:38:06;;;;;;;0.40;0.20;;;18.90;99.90;;;;;;5117823;28;20471;-73
2022/11/01 12:40:37;;;;;;;1.13;0.30;;;18.60;99.90;;;;;;5117686;28;20448;-72
2022/11/01 12:43:15;;;;;;;0.63;0.30;;;18.50;99.90;;;;;;5102722;28;20449;-72
2022/11/01 12:45:48;;;;;;;0.60;0.20;;;18.60;99.90;;;;;;5117112;28;20505;-73
2022/11/01 12:48:22;;;;;;;1.13;0.30;;;18.70;99.90;;;;;;5118476;28;20441;-73
2022/11/01 12:50:54;;;;;;;0.50;0.30;;;18.80;99.90;;;;;;5115338;28;21088;-73
2022/11/01 12:53:27;;;;;;;0.50;0.40;;;18.70;99.90;;;;;;5117453;28;20476;-74
2022/11/01 12:55:56;;;;;;;0.57;0.27;;;18.40;99.90;;;;;;5118694;28;20953;-73
2022/11/01 12:58:25;;;;;;;0.63;0.30;;;18.10;99.90;;;;;;5119447;28;20903;-73
2022/11/01 13:01:19;;;;;;;1.37;0.30;;;18.10;99.90;;;;;;5118772;28;20977;-73
2022/11/01 13:03:52;;;;;;;1.03;0.30;;;18.10;99.90;;;;;;5118686;28;20482;-74
2022/11/01 13:06:41;;;;;;;1.87;0.30;;;18.10;99.90;;;;;;5117284;28;20818;-73
2022/11/01 13:09:13;;;;;;;1.37;0.60;;;18.20;99.90;;;;;;5117433;28;20676;-73
2022/11/01 13:11:46;;;;;;;0.53;0.30;;;18.30;99.90;;;;;;5118544;28;20449;-72